Terminal Aerodrome Forecast
Issued by NWS

Home | Current Version | Previous Version | Graphics & Text | Print | Product List | Glossary On
Versions: 1 2 3 4 5 6 7 8 9 10 11 12 13 14 15 16
558
FTUS43 KTOP 162320
TAFMHK
TAF
KMHK 162320Z 1700/1724 VRB04KT P6SM FEW250
      TEMPO 1701/1704 5SM FU
     FM171000 10007KT P6SM SCT200
     FM171500 11012G21KT P6SM BKN040
     FM172000 12010KT P6SM SCT035=

USA.gov is the U.S. government's official web portal to all federal, state and local government web resources and services.